Latest Weather Observations for Marree Airport

IDS60801

Issued at 6:35 pm CDT Monday 20 October 2014 (issued every 30 minutes, with the page automatically refreshed every 10 minutes)

About weather observations | Map of weather stations | Latest weather observations for SA | Other Formats
Station Details ID: 017126 Name: MARREE AERO Lat: -29.66 Lon: 138.07 Height: 50.0 m
Data from the previous 72 hours. | See also: Recent months for locations in South Australia
Date/Time
CDT
Temp
°C
App
Temp
°C
Dew
Point
Rel
Hum
%
Delta-T
°C
Wind Press
QNH
hPa
Press
MSL
hPa
Rain
since 9 am
mm
Dir
 
Spd
km/h
Gust
km/h
Spd
kts
Gust
kts
20/06:30pm 36.5 30.5 -3.0 8 18.8 N 19 24 10 13 1016.5 - 0.0
20/06:00pm 37.0 31.0 -2.7 8 19.0 NNE 19 26 10 14 1016.4 1016.3 0.0
20/05:30pm 37.8 31.0 -2.1 8 19.4 NNE 24 33 13 18 1016.3 - 0.0
20/05:00pm 37.6 32.3 -4.0 7 19.6 NE 15 24 8 13 1016.4 - 0.0
20/04:30pm 37.1 32.3 -2.6 8 19.1 N 13 20 7 11 1016.5 - 0.0
20/04:00pm 37.6 31.1 -2.2 8 19.3 NE 22 35 12 19 1016.8 - 0.0
20/03:30pm 38.4 33.3 -1.6 8 19.7 NW 15 30 8 16 1017.1 - 0.0
20/03:00pm 37.8 33.1 -2.1 8 19.4 N 13 35 7 19 1017.5 1017.4 0.0
20/02:30pm 37.6 29.8 -4.0 7 19.6 N 28 41 15 22 1018.0 - 0.0
20/02:00pm 37.2 29.6 -2.5 8 19.1 N 28 39 15 21 1018.6 - 0.0
20/01:30pm 37.5 31.0 -2.3 8 19.3 NNW 22 35 12 19 1019.1 - 0.0
20/01:00pm 36.0 28.6 -3.4 8 18.6 N 26 37 14 20 1019.4 - 0.0
20/12:30pm 36.5 28.8 -3.0 8 18.8 N 28 39 15 21 1019.9 - 0.0
20/12:00pm 35.8 28.6 -2.0 9 18.2 N 26 43 14 23 1020.3 1020.2 0.0
20/11:30am 34.8 27.9 -2.7 9 17.7 N 24 30 13 16 1020.6 - 0.0
20/11:00am 34.0 27.4 -3.3 9 17.3 N 22 30 12 16 1020.9 - 0.0
20/10:30am 32.1 25.7 -4.7 9 16.5 NNE 20 28 11 15 1021.2 - 0.0
20/10:00am 31.0 25.1 -5.5 9 16.0 NE 17 24 9 13 1021.3 - 0.0
20/09:30am 29.1 22.6 -5.6 10 14.9 ENE 20 24 11 13 1021.3 - 0.0
20/09:00am 24.7 19.8 -6.6 12 12.7 SE 11 15 6 8 1021.1 1021.0 0.0
20/08:30am 22.5 17.3 -6.3 14 11.5 SE 13 17 7 9 1020.8 - 0.0
20/08:00am 20.7 14.7 -6.8 15 10.7 SE 17 19 9 10 1020.5 - 0.0
20/07:30am 19.9 13.8 -7.5 15 10.4 SSE 17 20 9 11 1020.0 - 0.0
20/07:00am 19.0 12.5 -7.4 16 10.0 SSE 19 20 10 11 1019.9 - 0.0
20/06:30am 19.1 12.7 -7.3 16 10.0 SSE 19 22 10 12 1019.5 - 0.0
20/06:00am 18.4 11.9 -7.8 16 9.7 SSE 19 20 10 11 1019.4 1019.3 0.0
20/05:30am 18.8 12.3 -7.5 16 9.9 SSE 19 20 10 11 1019.2 - 0.0
20/05:00am 18.2 11.7 -8.0 16 9.7 SSE 19 20 10 11 1019.1 - 0.0
20/04:30am 18.1 12.0 -8.1 16 9.6 SSE 17 19 9 10 1018.9 - 0.0
20/04:00am 18.9 13.1 -8.3 15 10.1 S 15 17 8 9 1018.7 - 0.0
20/03:30am 18.3 12.1 -8.7 15 9.8 SSE 17 19 9 10 1018.9 - 0.0
20/03:00am 18.9 12.8 -8.3 15 10.0 SSE 17 19 9 10 1018.8 1018.7 0.0
20/02:30am 18.5 12.7 -8.6 15 9.9 SSE 15 17 8 9 1018.9 - 0.0
20/02:00am 19.2 13.8 -8.9 14 10.3 S 13 15 7 8 1019.2 - 0.0
20/01:30am 19.8 13.6 -8.4 14 10.5 SSE 17 20 9 11 1019.2 - 0.0
20/01:00am 19.6 13.8 -8.6 14 10.4 SSE 15 15 8 8 1019.2 - 0.0
20/12:30am 20.2 14.7 -9.1 13 10.8 SSE 13 15 7 8 1019.4 - 0.0
20/12:00am 20.9 15.9 -8.5 13 11.0 S 11 13 6 7 1019.6 1019.5 0.0
 
Date/Time
CDT
Temp
°C
App
Temp
°C
Dew
Point
Rel
Hum
%
Delta-T
°C
Wind Press
QNH
hPa
Press
MSL
hPa
Rain
since 9 am
mm
Dir
 
Spd
km/h
Gust
km/h
Spd
kts
Gust
kts
19/11:30pm 22.4 16.9 -9.5 11 12.0 SSE 13 17 7 9 1019.7 - 0.0
19/11:00pm 22.3 17.3 -8.4 12 11.8 SSE 11 13 6 7 1019.7 - 0.0
19/10:30pm 24.6 20.3 -9.0 10 13.0 ESE 7 9 4 5 1019.6 - 0.0
19/10:00pm 24.9 20.2 -8.8 10 13.2 SE 9 11 5 6 1019.5 - 0.0
19/09:30pm 26.1 21.5 -7.9 10 13.7 SE 9 11 5 6 1019.3 - 0.0
19/09:00pm 28.7 25.7 -8.8 8 15.2 CALM 0 0 0 0 1019.1 1019.0 0.0
19/08:30pm 30.1 26.5 -7.7 8 15.8 N 4 6 2 3 1018.9 - 0.0
19/08:00pm 30.8 26.5 -8.9 7 16.4 N 7 9 4 5 1018.7 - 0.0
19/07:30pm 31.6 26.6 -8.4 7 16.8 N 11 13 6 7 1018.2 - 0.0
19/07:00pm 33.3 29.0 -9.1 6 17.8 NNE 7 9 4 5 1017.9 - 0.0
19/06:30pm 33.8 29.7 -8.7 6 18.1 ENE 6 9 3 5 1017.8 - 0.0
19/06:00pm 34.1 29.7 -10.8 5 18.5 NNE 7 15 4 8 1017.7 1017.6 0.0
19/05:30pm 35.0 31.0 -7.9 6 18.7 NE 6 11 3 6 1017.6 - 0.0
19/05:00pm 34.6 29.6 -8.2 6 18.5 NNW 11 17 6 9 1017.8 - 0.0
19/04:30pm 35.2 30.2 -7.7 6 18.8 N 11 20 6 11 1017.7 - 0.0
19/04:00pm 35.2 30.2 -7.7 6 18.8 N 11 17 6 9 1017.9 - 0.0
19/03:30pm 35.2 29.5 -7.7 6 18.8 N 15 24 8 13 1018.0 - 0.0
19/03:00pm 35.0 28.5 -7.9 6 18.6 NNW 19 24 10 13 1018.3 1018.2 0.0
19/02:30pm 34.7 30.5 -8.1 6 18.5 N 7 20 4 11 1018.7 - 0.0
19/02:00pm 34.3 28.1 -8.4 6 18.3 NNE 17 30 9 16 1019.2 - 0.0
19/01:30pm 33.5 27.3 -9.0 6 17.9 N 17 28 9 15 1019.6 - 0.0
19/01:00pm 33.4 26.8 -7.0 7 17.6 NNE 20 30 11 16 1020.1 - 0.0
19/12:30pm 33.7 27.3 -6.8 7 17.8 N 19 33 10 18 1020.4 - 0.0
19/12:00pm 32.7 26.2 -7.6 7 17.2 NNE 19 30 10 16 1020.7 1020.6 0.0
19/11:30am 32.5 24.7 -7.7 7 17.2 NNE 26 35 14 19 1021.0 - 0.0
19/11:00am 31.7 23.2 -6.6 8 16.6 NNE 30 39 16 21 1021.2 - 0.0
19/10:30am 30.6 22.4 -7.4 8 16.1 NNE 28 37 15 20 1021.4 - 0.0
19/10:00am 29.4 21.3 -6.7 9 15.3 NE 28 37 15 20 1021.5 - 0.0
19/09:30am 27.9 20.8 -7.9 9 14.6 NE 22 28 12 15 1021.6 - 0.0
19/09:00am 26.0 19.4 -6.7 11 13.4 NE 20 26 11 14 1021.6 1021.5 0.0
19/08:30am 23.8 18.6 -6.2 13 12.2 E 13 17 7 9 1021.4 - 0.0
19/08:00am 20.4 15.6 -6.2 16 10.4 ESE 11 19 6 10 1021.2 - 0.0
19/07:30am 17.9 12.7 -6.7 18 9.3 SE 13 15 7 8 1021.1 - 0.0
19/07:00am 16.0 10.8 -6.3 21 8.3 E 13 15 7 8 1020.6 - 0.0
19/06:30am 14.9 9.7 -6.6 22 7.9 E 13 13 7 7 1020.3 - 0.0
19/06:00am 15.5 10.7 -6.1 22 8.0 ESE 11 13 6 7 1020.0 1019.9 0.0
19/05:30am 14.7 10.2 -6.8 22 7.8 SE 9 11 5 6 1019.7 - 0.0
19/05:00am 15.1 9.9 -6.4 22 7.9 ESE 13 15 7 8 1019.7 - 0.0
19/04:30am 15.5 10.3 -6.1 22 8.0 SSE 13 17 7 9 1019.6 - 0.0
19/04:00am 15.9 10.7 -6.4 21 8.3 SSE 13 15 7 8 1019.7 - 0.0
19/03:30am 16.2 10.6 -6.1 21 8.4 SSE 15 15 8 8 1019.9 - 0.0
19/03:00am 16.5 10.9 -6.5 20 8.6 SE 15 17 8 9 1019.9 1019.8 0.0
19/02:30am 17.1 11.5 -6.7 19 8.9 SE 15 17 8 9 1020.1 - 0.0
19/02:00am 17.5 12.7 -6.3 19 9.0 ESE 11 15 6 8 1020.2 - 0.0
19/01:30am 18.6 13.0 -6.2 18 9.5 E 15 17 8 9 1020.6 - 0.0
19/01:00am 18.6 13.4 -6.2 18 9.5 E 13 15 7 8 1020.8 - 0.0
19/12:30am 20.4 14.8 -6.2 16 10.4 E 15 17 8 9 1021.0 - 0.0
19/12:00am 20.5 14.6 -6.1 16 10.4 E 17 17 9 9 1020.8 1020.7 0.0
 
Date/Time
CDT
Temp
°C
App
Temp
°C
Dew
Point
Rel
Hum
%
Delta-T
°C
Wind Press
QNH
hPa
Press
MSL
hPa
Rain
since 9 am
mm
Dir
 
Spd
km/h
Gust
km/h
Spd
kts
Gust
kts
18/11:30pm 21.4 15.4 -6.3 15 11.0 E 17 19 9 10 1020.7 - 0.0
18/11:00pm 21.2 15.2 -6.4 15 10.9 E 17 19 9 10 1020.7 - 0.0
18/10:30pm 21.4 15.7 -7.2 14 11.1 E 15 15 8 8 1020.9 - 0.0
18/10:00pm 21.8 16.1 -7.8 13 11.4 E 15 17 8 9 1020.8 - 0.0
18/09:30pm 23.1 17.0 -7.8 12 12.1 E 17 17 9 9 1020.6 - 0.0
18/09:00pm 24.5 18.4 -7.9 11 12.8 E 17 19 9 10 1020.5 1020.4 0.0
18/08:30pm 25.4 19.6 -8.4 10 13.4 E 15 15 8 8 1020.4 - 0.0
18/08:00pm 26.8 21.1 -7.3 10 14.0 ENE 15 17 8 9 1020.0 - 0.0
18/07:30pm 29.3 23.9 -8.3 8 15.5 ENE 13 15 7 8 1019.7 - 0.0
18/07:00pm 31.1 25.1 -7.0 8 16.3 ENE 17 22 9 12 1019.2 - 0.0
18/06:30pm 31.7 25.2 -8.3 7 16.8 ENE 19 24 10 13 1019.0 - 0.0
18/06:00pm 31.8 25.7 -8.2 7 16.8 E 17 26 9 14 1018.9 1018.8 0.0
18/05:30pm 32.0 25.9 -8.1 7 17.0 ESE 17 26 9 14 1018.9 - 0.0
18/05:00pm 32.4 26.7 -7.8 7 17.1 E 15 24 8 13 1018.8 - 0.0
18/04:30pm 32.1 26.7 -8.0 7 17.0 ENE 13 28 7 15 1018.8 - 0.0
18/04:00pm 31.7 25.9 -8.3 7 16.8 ENE 15 28 8 15 1019.1 - 0.0
18/03:30pm 31.6 26.4 -6.6 8 16.5 NE 13 28 7 15 1019.4 - 0.0
18/03:00pm 31.3 24.9 -5.3 9 16.1 ENE 20 32 11 17 1019.8 1019.7 0.0
18/02:30pm 31.1 24.8 -5.5 9 16.1 ESE 19 28 10 15 1020.2 - 0.0
18/02:00pm 30.8 24.7 -4.3 10 15.7 ENE 19 30 10 16 1020.8 - 0.0
18/01:30pm 30.8 24.7 -4.3 10 15.7 ENE 19 33 10 18 1021.3 - 0.0
18/01:00pm 30.9 25.1 -4.2 10 15.7 NE 17 28 9 15 1021.9 - 0.0
18/12:30pm 29.2 23.4 -4.3 11 14.8 ENE 17 39 9 21 1022.4 - 0.0
18/12:00pm 29.4 22.7 -4.1 11 14.8 ENE 22 39 12 21 1022.9 1022.8 0.0
18/11:30am 28.9 21.8 -4.5 11 14.6 NNE 24 33 13 18 1023.3 - 0.0
18/11:00am 28.3 20.5 -3.8 12 14.2 NNE 28 39 15 21 1023.4 - 0.0
18/10:30am 27.6 19.9 -3.3 13 13.7 NE 28 35 15 19 1023.7 - 0.0
18/10:00am 26.1 18.7 -3.5 14 12.9 NE 26 33 14 18 1023.9 - 0.0
18/09:30am 24.8 18.3 -2.7 16 12.0 NE 22 30 12 16 1024.0 - 0.0
18/09:00am 23.1 17.2 -2.5 18 11.0 ENE 19 22 10 12 1024.1 1024.0 0.0
18/08:30am 20.2 16.1 -2.8 21 9.6 ESE 9 13 5 7 1024.2 - 0.0
18/08:00am 18.4 14.0 -2.5 24 8.7 SSE 11 11 6 6 1024.0 - 0.0
18/07:30am 15.8 11.3 -3.1 27 7.5 SSE 11 13 6 7 1023.5 - 0.0
18/07:00am 13.2 8.6 -4.4 29 6.6 S 11 13 6 7 1023.0 - 0.0
18/06:30am 12.8 7.7 -5.2 28 6.6 SSE 13 15 7 8 1022.5 - 0.0
18/06:00am 12.9 7.4 -5.1 28 6.6 SSE 15 17 8 9 1022.1 1022.0 0.0
18/05:30am 13.7 8.2 -5.4 26 7.1 SSE 15 17 8 9 1021.9 - 0.0
18/05:00am 14.4 9.3 -5.3 25 7.4 SSE 13 17 7 9 1021.8 - 0.0
18/04:30am 15.0 9.1 -5.4 24 7.7 SSE 17 19 9 10 1021.7 - 0.0
18/04:00am 15.5 10.0 -5.0 24 7.8 SSE 15 17 8 9 1021.7 - 0.0
18/03:30am 15.3 10.2 -5.1 24 7.7 SSE 13 15 7 8 1021.7 - 0.0
18/03:00am 16.9 12.2 -4.9 22 8.4 S 11 13 6 7 1021.8 1021.7 0.0
18/02:30am 17.0 12.7 -4.8 22 8.5 SSE 9 13 5 7 1022.0 - -
18/02:00am 15.0 10.5 -6.5 22 7.9 SSE 9 11 5 6 1022.1 - 0.0
18/01:30am 15.9 12.4 -5.8 22 8.2 WNW 4 9 2 5 1021.9 - 0.0
18/01:00am 19.1 14.8 -5.0 19 9.6 E 9 13 5 7 1022.0 - 0.0
18/12:30am 18.4 14.4 -5.6 19 9.3 ESE 7 11 4 6 1022.0 - 0.0
18/12:00am 20.3 14.4 -5.5 17 10.2 E 17 19 9 10 1021.9 1021.8 0.0
 
Date/Time
CDT
Temp
°C
App
Temp
°C
Dew
Point
Rel
Hum
%
Delta-T
°C
Wind Press
QNH
hPa
Press
MSL
hPa
Rain
since 9 am
mm
Dir
 
Spd
km/h
Gust
km/h
Spd
kts
Gust
kts
17/11:30pm 20.0 14.1 -5.8 17 10.2 ENE 17 19 9 10 1021.8 - 0.0
17/11:00pm 19.8 14.6 -6.7 16 10.2 ENE 13 15 7 8 1021.8 - 0.0
17/10:30pm 20.9 15.3 -6.7 15 10.8 ENE 15 17 8 9 1021.7 - 0.0
17/10:00pm 21.9 15.9 -6.8 14 11.3 ENE 17 19 9 10 1021.7 - 0.0
17/09:30pm 22.2 16.5 -7.5 13 11.6 ENE 15 17 8 9 1021.5 - 0.0
17/09:00pm 23.1 17.8 -7.8 12 12.0 E 13 15 7 8 1021.3 1021.2 0.0
17/08:30pm 24.4 18.7 -7.9 11 12.8 ENE 15 15 8 8 1021.0 - 0.0
17/08:00pm 26.1 21.1 -7.9 10 13.7 ENE 11 13 6 7 1020.7 - 0.0
17/07:30pm 27.6 22.6 -8.1 9 14.5 ENE 11 15 6 8 1020.4 - 0.0
17/07:00pm 29.3 23.9 -8.3 8 15.5 NE 13 17 7 9 1020.2 - 0.0

Other Formats:

Comma delimited format used in spreadsheet applications
http://www.bom.gov.au/fwo/IDS60801/IDS60801.95480.axf

JavaScript Object Notation format (JSON) in row-major order
http://www.bom.gov.au/fwo/IDS60801/IDS60801.95480.json